Time;durP1;ratioP1;P1;durP2;ratioP2;P2;SDS_P1;SDS_P2;PMS_P1;PMS_P2;Temp;Humidity;BMP_temperature;BMP_pressure;BME280_temperature;BME280_humidity;BME280_pressure;Samples;Min_cycle;Max_cycle;Signal;HPM_P1;HPM_P2
2022/06/01 00:02:00;;;;;;;26.13;23.47;;;21.50;70.70;;;;;;4993198;28;20132;-53
2022/06/01 00:04:26;;;;;;;26.17;23.43;;;21.40;70.80;;;;;;4993903;28;20495;-52
2022/06/01 00:06:51;;;;;;;26.45;22.83;;;21.40;71.10;;;;;;4995068;28;20269;-50
2022/06/01 00:09:17;;;;;;;28.30;22.60;;;21.40;71.30;;;;;;4995126;28;20517;-51
2022/06/01 00:11:43;;;;;;;30.87;23.03;;;21.40;71.30;;;;;;4993935;28;20042;-52
2022/06/01 00:14:09;;;;;;;28.33;23.20;;;21.40;71.40;;;;;;4993869;28;20034;-53
2022/06/01 00:16:35;;;;;;;25.30;22.73;;;21.40;71.40;;;;;;4994978;28;20018;-53
2022/06/01 00:19:00;;;;;;;27.67;24.00;;;21.40;71.50;;;;;;4994644;28;20026;-50
2022/06/01 00:21:26;;;;;;;26.87;22.90;;;21.40;71.60;;;;;;4994940;28;20034;-50
2022/06/01 00:23:52;;;;;;;29.13;22.80;;;21.40;71.60;;;;;;4993848;28;20535;-51
2022/06/01 00:26:18;;;;;;;25.20;22.07;;;21.30;71.60;;;;;;4994866;28;20364;-51
2022/06/01 00:28:43;;;;;;;26.03;22.33;;;21.40;71.80;;;;;;4994632;28;20072;-52
2022/06/01 00:31:13;;;;;;;25.03;22.33;;;21.40;71.80;;;;;;4994771;28;20038;-52
2022/06/01 00:33:39;;;;;;;26.58;22.92;;;21.40;71.70;;;;;;4989975;28;20035;-50
2022/06/01 00:36:07;;;;;;;27.33;22.75;;;21.40;71.80;;;;;;4993801;28;20027;-51
2022/06/01 00:38:34;;;;;;;33.78;22.80;;;21.40;71.80;;;;;;4994349;28;20069;-53
2022/06/01 00:40:59;;;;;;;27.70;22.50;;;21.30;72.00;;;;;;4993855;28;20110;-51
2022/06/01 00:43:36;;;;;;;30.20;23.53;;;21.30;72.10;;;;;;4994310;28;20465;-54
2022/06/01 00:46:02;;;;;;;26.63;22.35;;;21.30;72.10;;;;;;5006195;28;20033;-50
2022/06/01 00:48:30;;;;;;;29.80;23.57;;;21.30;72.10;;;;;;5009027;28;20019;-51
2022/06/01 00:50:56;;;;;;;28.10;24.73;;;21.30;72.30;;;;;;4994224;28;20031;-55
2022/06/01 00:53:27;;;;;;;28.45;24.17;;;21.30;72.40;;;;;;4993904;28;20022;-51
2022/06/01 00:55:59;;;;;;;28.10;25.17;;;21.30;72.20;;;;;;4994285;28;20073;-50
2022/06/01 00:58:33;;;;;;;27.13;23.83;;;21.30;72.50;;;;;;4994112;28;20057;-51
2022/06/01 01:00:59;;;;;;;27.67;24.08;;;21.20;72.70;;;;;;4993997;28;20105;-52
2022/06/01 01:03:28;;;;;;;31.27;24.83;;;21.10;73.20;;;;;;4994322;28;20539;-51
2022/06/01 01:06:06;;;;;;;30.60;25.92;;;21.10;73.30;;;;;;4994188;28;20439;-51
2022/06/01 01:08:32;;;;;;;33.38;25.08;;;21.10;73.60;;;;;;4993931;28;20373;-55
2022/06/01 01:10:57;;;;;;;32.20;24.90;;;21.10;73.60;;;;;;4993949;28;20125;-50
2022/06/01 01:13:23;;;;;;;27.43;24.20;;;21.00;73.30;;;;;;4993684;28;20065;-50
2022/06/01 01:15:52;;;;;;;40.13;24.63;;;21.00;73.10;;;;;;4994192;28;20041;-51
2022/06/01 01:18:35;;;;;;;26.33;23.27;;;21.00;72.90;;;;;;4992615;28;20027;-50
2022/06/01 01:21:10;;;;;;;27.70;24.73;;;21.00;73.20;;;;;;4993458;28;20033;-52
2022/06/01 01:24:11;;;;;;;28.67;24.80;;;20.90;73.50;;;;;;4994087;28;20026;-50
2022/06/01 01:26:37;;;;;;;27.85;24.98;;;20.80;74.10;;;;;;4985233;28;20097;-50
2022/06/01 01:29:09;;;;;;;29.53;25.03;;;20.70;74.00;;;;;;4993707;28;20034;-51
2022/06/01 01:31:37;;;;;;;30.67;26.73;;;20.70;74.30;;;;;;4992535;28;20439;-50
2022/06/01 01:34:04;;;;;;;28.67;25.67;;;20.70;74.50;;;;;;4993422;28;20027;-50
2022/06/01 01:36:36;;;;;;;27.98;24.13;;;20.60;74.80;;;;;;4993308;28;20057;-51
2022/06/01 01:39:09;;;;;;;37.83;26.35;;;20.50;75.10;;;;;;4993316;28;20038;-54
2022/06/01 01:41:47;;;;;;;30.02;25.95;;;20.50;75.40;;;;;;4992022;28;20488;-51
2022/06/01 01:44:25;;;;;;;27.92;24.90;;;20.40;75.40;;;;;;4993360;28;20495;-51
2022/06/01 01:46:52;;;;;;;29.00;25.33;;;20.40;75.60;;;;;;4993330;28;20491;-51
2022/06/01 01:49:21;;;;;;;32.72;25.52;;;20.40;75.40;;;;;;4993047;28;20513;-52
2022/06/01 01:51:48;;;;;;;30.02;25.85;;;20.50;75.50;;;;;;4991653;28;20072;-53
2022/06/01 01:54:31;;;;;;;30.42;24.08;;;20.50;75.60;;;;;;4992041;28;20071;-51
2022/06/01 01:57:17;;;;;;;28.27;25.10;;;20.50;75.50;;;;;;4993413;28;20034;-51
2022/06/01 02:00:14;;;;;;;30.70;25.40;;;20.50;75.30;;;;;;4952923;28;20168;-51
2022/06/01 02:02:39;;;;;;;33.63;25.83;;;20.50;75.10;;;;;;4992572;28;20023;-50
2022/06/01 02:08:33;;;;;;;34.10;25.85;;;20.40;75.60;;;;;;4964423;28;20043;-52
2022/06/01 02:14:21;;;;;;;30.10;26.10;;;20.30;76.30;;;;;;4989479;28;20419;-51
2022/06/01 02:16:52;;;;;;;32.88;25.92;;;20.20;76.00;;;;;;4988032;28;20073;-51
2022/06/01 02:19:24;;;;;;;29.40;25.60;;;20.20;76.30;;;;;;4991489;28;20030;-53
2022/06/01 02:21:51;;;;;;;38.00;25.52;;;20.10;76.40;;;;;;4991961;28;20162;-51
2022/06/01 02:24:18;;;;;;;30.75;26.55;;;20.10;76.60;;;;;;4992096;28;20030;-51
2022/06/01 02:26:46;;;;;;;31.75;26.08;;;20.10;76.60;;;;;;4993191;28;20033;-50
2022/06/01 02:29:17;;;;;;;51.78;26.63;;;20.10;76.80;;;;;;4992269;28;20026;-52
2022/06/01 02:31:45;;;;;;;32.08;27.10;;;20.10;76.90;;;;;;4992867;28;20026;-50
2022/06/01 02:34:13;;;;;;;35.25;27.48;;;20.10;76.80;;;;;;4992241;28;20475;-51
2022/06/01 02:36:40;;;;;;;30.42;25.95;;;20.10;76.80;;;;;;4992564;28;20030;-50
2022/06/01 02:39:08;;;;;;;31.33;25.30;;;20.10;76.90;;;;;;4992175;28;20039;-53
2022/06/01 02:44:20;;;;;;;28.83;25.67;;;20.10;77.40;;;;;;4992234;28;20069;-50
2022/06/01 02:46:45;;;;;;;31.77;25.23;;;20.00;76.70;;;;;;4992354;28;20038;-54
2022/06/01 02:49:11;;;;;;;36.40;26.37;;;19.90;77.40;;;;;;4990883;28;20023;-50
2022/06/01 02:51:37;;;;;;;30.52;25.38;;;19.90;76.90;;;;;;4980609;28;20114;-54
2022/06/01 02:54:03;;;;;;;32.47;25.77;;;19.90;76.90;;;;;;4992359;28;20109;-50
2022/06/01 02:56:29;;;;;;;29.87;24.17;;;19.90;76.80;;;;;;4992140;28;20069;-52
2022/06/01 02:58:56;;;;;;;30.60;25.40;;;19.80;76.70;;;;;;4975847;28;20066;-51
2022/06/01 03:01:22;;;;;;;32.60;25.08;;;19.80;76.70;;;;;;4985606;28;20073;-54
2022/06/01 03:03:48;;;;;;;29.73;25.43;;;19.80;77.30;;;;;;4990760;28;20109;-53
2022/06/01 03:06:15;;;;;;;33.97;24.67;;;19.70;77.50;;;;;;4990152;28;20030;-53
2022/06/01 03:08:41;;;;;;;30.50;24.55;;;19.60;77.50;;;;;;4992325;28;20102;-51
2022/06/01 03:11:07;;;;;;;33.05;24.23;;;19.50;77.50;;;;;;4992362;28;20101;-51
2022/06/01 03:13:32;;;;;;;33.00;24.73;;;19.60;77.70;;;;;;4989140;28;20106;-50
2022/06/01 03:15:58;;;;;;;28.00;24.57;;;19.60;77.60;;;;;;4991886;28;20057;-50
2022/06/01 03:18:24;;;;;;;27.60;22.67;;;19.60;77.40;;;;;;4994077;28;20026;-53
2022/06/01 03:20:50;;;;;;;32.97;23.83;;;19.60;77.50;;;;;;5011771;28;20105;-52
2022/06/01 03:23:15;;;;;;;29.87;24.07;;;19.60;77.50;;;;;;5000660;28;20514;-50
2022/06/01 03:25:41;;;;;;;33.63;23.80;;;19.50;77.60;;;;;;4992004;28;20490;-51
2022/06/01 03:28:07;;;;;;;35.38;25.80;;;19.60;77.80;;;;;;4991818;28;20399;-53
2022/06/01 03:30:33;;;;;;;29.20;22.80;;;19.50;77.80;;;;;;4992240;28;20034;-52
2022/06/01 03:32:59;;;;;;;29.40;22.30;;;19.50;77.80;;;;;;4991897;28;20027;-52
2022/06/01 03:35:28;;;;;;;28.80;22.13;;;19.40;77.70;;;;;;4992885;28;20033;-50
2022/06/01 03:37:57;;;;;;;33.10;22.50;;;19.30;77.80;;;;;;4992605;28;20300;-51
2022/06/01 03:40:25;;;;;;;31.13;22.85;;;19.40;77.90;;;;;;4993707;28;20023;-53
2022/06/01 03:42:51;;;;;;;27.70;22.05;;;19.30;77.60;;;;;;4995755;28;20518;-51
2022/06/01 03:48:03;;;;;;;27.63;23.60;;;19.30;77.70;;;;;;4996164;28;20037;-52
2022/06/01 03:50:29;;;;;;;28.73;22.98;;;19.30;77.80;;;;;;4996082;28;20093;-54
2022/06/01 03:52:55;;;;;;;34.83;24.10;;;19.30;78.20;;;;;;4995182;28;20025;-56
2022/06/01 03:55:22;;;;;;;29.60;25.35;;;19.10;78.60;;;;;;4995582;28;20026;-53
2022/06/01 03:57:48;;;;;;;28.08;23.30;;;19.10;78.90;;;;;;4995767;28;20110;-51
2022/06/01 04:00:18;;;;;;;28.23;23.00;;;19.10;78.90;;;;;;4995615;28;20038;-51
2022/06/01 04:02:44;;;;;;;25.90;22.58;;;19.10;78.70;;;;;;4995242;28;20089;-51
2022/06/01 04:05:10;;;;;;;35.40;24.58;;;19.10;78.40;;;;;;4995429;28;20026;-56
2022/06/01 04:07:36;;;;;;;28.98;24.65;;;19.20;78.70;;;;;;4995456;28;20019;-51
2022/06/01 04:10:04;;;;;;;29.43;23.60;;;19.10;78.90;;;;;;4995531;28;20110;-50
2022/06/01 04:12:30;;;;;;;28.00;24.10;;;19.10;78.90;;;;;;4995457;28;20081;-50
2022/06/01 04:14:56;;;;;;;30.85;23.90;;;19.20;78.90;;;;;;4995408;28;20038;-50
2022/06/01 04:17:21;;;;;;;28.97;24.00;;;19.20;78.80;;;;;;4995405;28;20390;-52
2022/06/01 04:19:47;;;;;;;27.30;22.27;;;19.10;78.70;;;;;;4995524;28;20435;-54
2022/06/01 04:22:14;;;;;;;29.92;23.95;;;19.00;78.90;;;;;;4995346;28;20034;-50
2022/06/01 04:24:40;;;;;;;32.65;24.45;;;19.10;79.20;;;;;;4994967;28;20045;-52
2022/06/01 04:27:07;;;;;;;32.33;25.87;;;19.10;79.50;;;;;;4995323;28;20490;-51
2022/06/01 04:29:33;;;;;;;28.73;23.98;;;19.10;79.60;;;;;;4977785;28;20097;-58
2022/06/01 04:32:03;;;;;;;30.50;25.23;;;19.20;79.70;;;;;;4995155;28;20097;-50
2022/06/01 04:34:29;;;;;;;28.67;24.05;;;19.20;79.80;;;;;;4995319;28;20145;-51
2022/06/01 04:36:55;;;;;;;27.95;24.08;;;19.20;79.60;;;;;;4994886;28;20089;-52
2022/06/01 04:39:22;;;;;;;28.57;23.43;;;19.20;79.40;;;;;;4995418;28;20450;-50
2022/06/01 04:41:47;;;;;;;27.60;23.90;;;19.20;79.20;;;;;;4993602;28;20035;-52
2022/06/01 04:44:13;;;;;;;28.27;22.63;;;19.30;79.30;;;;;;4993594;28;20034;-53
2022/06/01 04:46:39;;;;;;;28.20;23.08;;;19.30;79.30;;;;;;4994592;28;20065;-50
2022/06/01 04:49:07;;;;;;;28.33;23.30;;;19.30;79.30;;;;;;4994444;28;20081;-51
2022/06/01 04:51:34;;;;;;;26.15;22.77;;;19.30;79.20;;;;;;4994734;28;20037;-50
2022/06/01 04:53:59;;;;;;;29.98;22.35;;;19.30;79.30;;;;;;4994768;28;20230;-52
2022/06/01 04:56:25;;;;;;;26.45;23.35;;;19.40;79.30;;;;;;4994437;28;20034;-51
2022/06/01 04:58:51;;;;;;;31.80;23.03;;;19.40;79.50;;;;;;4994981;28;20027;-56
2022/06/01 05:01:16;;;;;;;30.23;22.90;;;19.30;79.50;;;;;;4994864;28;20582;-52
2022/06/01 05:03:42;;;;;;;30.42;23.00;;;19.40;79.60;;;;;;4994483;28;20120;-51
2022/06/01 05:06:08;;;;;;;30.17;22.95;;;19.40;79.50;;;;;;4994612;28;20379;-54
2022/06/01 05:08:34;;;;;;;31.63;23.83;;;19.50;79.40;;;;;;4994351;28;20019;-55
2022/06/01 05:11:00;;;;;;;28.60;23.17;;;19.50;79.60;;;;;;4994424;28;20014;-50
2022/06/01 05:13:25;;;;;;;32.97;23.98;;;19.50;79.30;;;;;;4994317;28;20041;-51
2022/06/01 05:15:56;;;;;;;29.53;24.00;;;19.60;79.40;;;;;;4994175;28;20500;-50
2022/06/01 05:18:23;;;;;;;33.30;24.25;;;19.60;80.10;;;;;;4992930;28;20076;-56
2022/06/01 05:20:50;;;;;;;28.25;24.02;;;19.60;79.90;;;;;;4994224;28;20044;-51
2022/06/01 05:23:17;;;;;;;36.38;25.58;;;19.60;79.60;;;;;;4994167;28;20182;-50
2022/06/01 05:25:45;;;;;;;30.08;25.35;;;19.60;79.70;;;;;;4993900;28;20030;-50
2022/06/01 05:28:12;;;;;;;33.20;25.45;;;19.70;79.90;;;;;;4976627;28;20391;-51
2022/06/01 05:30:38;;;;;;;31.05;25.85;;;19.70;79.80;;;;;;4994002;28;20026;-55
2022/06/01 05:33:04;;;;;;;31.00;26.02;;;19.60;80.50;;;;;;4994020;28;20101;-51
2022/06/01 05:35:29;;;;;;;29.57;24.83;;;19.60;80.70;;;;;;4993947;28;20109;-50
2022/06/01 05:37:55;;;;;;;31.25;27.85;;;19.60;80.50;;;;;;4993838;28;20125;-52
2022/06/01 05:40:21;;;;;;;38.50;27.77;;;19.80;80.40;;;;;;4993804;28;20033;-51
2022/06/01 05:42:47;;;;;;;30.60;25.50;;;19.90;80.30;;;;;;4993878;28;20507;-52
2022/06/01 05:45:12;;;;;;;31.73;26.90;;;20.00;80.10;;;;;;4993759;28;20062;-54
2022/06/01 05:47:38;;;;;;;34.67;27.60;;;20.00;79.90;;;;;;4993700;28;20026;-50
2022/06/01 05:50:05;;;;;;;33.90;27.05;;;20.10;79.70;;;;;;4993690;28;20023;-51
2022/06/01 05:52:31;;;;;;;31.13;27.10;;;20.10;79.60;;;;;;4993535;28;20033;-52
2022/06/01 05:54:57;;;;;;;34.85;28.13;;;20.20;79.70;;;;;;4993310;28;20023;-51
2022/06/01 05:57:23;;;;;;;33.23;29.80;;;20.10;79.70;;;;;;4993477;28;20077;-50
2022/06/01 05:59:48;;;;;;;34.60;30.10;;;20.10;80.00;;;;;;4992699;28;20027;-51
2022/06/01 06:02:14;;;;;;;33.67;28.08;;;20.00;80.00;;;;;;4992082;28;20395;-50
2022/06/01 06:04:40;;;;;;;39.90;30.20;;;20.00;80.20;;;;;;4992027;28;20042;-54
2022/06/01 06:07:05;;;;;;;34.03;30.40;;;20.10;80.00;;;;;;4993501;28;20037;-53
2022/06/01 06:09:31;;;;;;;34.78;30.73;;;20.20;79.70;;;;;;4992986;28;20023;-53
2022/06/01 06:11:57;;;;;;;34.42;29.15;;;20.30;79.50;;;;;;4993362;28;20505;-51
2022/06/01 06:14:22;;;;;;;32.70;29.43;;;20.40;79.10;;;;;;4993246;28;20034;-54
2022/06/01 06:16:48;;;;;;;36.30;30.03;;;20.50;78.60;;;;;;4993134;28;20038;-52
2022/06/01 06:19:16;;;;;;;32.85;27.75;;;20.60;78.20;;;;;;4993211;28;20030;-54
2022/06/01 06:21:42;;;;;;;35.83;28.38;;;20.60;77.40;;;;;;4992893;28;20509;-50
2022/06/01 06:24:14;;;;;;;35.57;28.50;;;20.70;76.70;;;;;;4992909;28;20029;-52
2022/06/01 06:26:42;;;;;;;38.03;29.48;;;20.70;76.00;;;;;;4992962;28;20019;-54
2022/06/01 06:29:10;;;;;;;39.95;28.55;;;20.70;76.30;;;;;;4992828;28;20085;-53
2022/06/01 06:31:37;;;;;;;31.58;27.77;;;20.80;76.40;;;;;;4992794;28;20030;-52
2022/06/01 06:34:03;;;;;;;36.85;29.17;;;20.80;76.30;;;;;;4991656;28;20030;-51
2022/06/01 06:36:29;;;;;;;35.93;27.43;;;20.80;75.80;;;;;;4992743;28;20026;-51
2022/06/01 06:38:55;;;;;;;32.37;24.70;;;20.90;75.10;;;;;;4992655;28;20034;-51
2022/06/01 06:41:21;;;;;;;31.05;25.92;;;21.00;73.60;;;;;;4992751;28;20031;-55
2022/06/01 06:43:48;;;;;;;31.65;25.67;;;21.00;73.70;;;;;;4975219;28;20041;-51
2022/06/01 06:46:20;;;;;;;31.67;27.02;;;21.20;73.50;;;;;;4992682;28;20110;-56
2022/06/01 06:48:50;;;;;;;33.58;27.55;;;21.30;72.40;;;;;;4992636;28;20041;-55
2022/06/01 06:51:18;;;;;;;31.02;27.45;;;21.50;72.80;;;;;;4992529;28;20097;-56
2022/06/01 06:53:44;;;;;;;31.35;27.00;;;21.60;72.50;;;;;;4992598;28;20030;-54
2022/06/01 06:56:11;;;;;;;29.37;26.13;;;21.70;72.40;;;;;;4992425;28;20021;-55
2022/06/01 06:58:37;;;;;;;30.52;26.48;;;21.80;71.30;;;;;;4992369;28;20261;-52
2022/06/01 07:01:03;;;;;;;30.43;26.73;;;21.80;70.40;;;;;;4992704;28;20022;-51
2022/06/01 07:03:29;;;;;;;33.97;28.40;;;21.80;70.60;;;;;;4992571;28;20026;-52
2022/06/01 07:06:11;;;;;;;35.70;28.63;;;21.90;71.10;;;;;;4990924;28;20446;-57
2022/06/01 07:08:42;;;;;;;31.48;27.10;;;22.10;70.80;;;;;;4992382;28;20077;-54
2022/06/01 07:11:08;;;;;;;31.00;27.20;;;22.20;70.80;;;;;;4992054;28;20030;-55
2022/06/01 07:13:35;;;;;;;35.92;27.10;;;22.20;70.20;;;;;;4992433;28;20031;-53
2022/06/01 07:16:33;;;;;;;37.35;28.67;;;22.30;70.50;;;;;;4992273;28;20034;-51
2022/06/01 07:19:01;;;;;;;35.80;27.77;;;22.40;69.10;;;;;;4988267;28;20117;-50
2022/06/01 07:21:31;;;;;;;35.70;28.80;;;22.40;69.20;;;;;;4992114;28;20257;-52
2022/06/01 07:23:57;;;;;;;36.55;32.65;;;22.60;71.60;;;;;;4974743;28;20559;-52
2022/06/01 07:26:34;;;;;;;37.05;29.38;;;22.70;70.60;;;;;;4990914;28;20027;-50
2022/06/01 07:29:00;;;;;;;35.85;28.83;;;22.70;70.30;;;;;;4992243;28;20019;-50
2022/06/01 07:31:26;;;;;;;36.65;29.35;;;22.80;70.90;;;;;;4992097;28;20042;-51
2022/06/01 07:33:52;;;;;;;40.17;27.93;;;22.90;70.60;;;;;;4992163;28;20030;-50
2022/06/01 07:36:18;;;;;;;31.40;26.30;;;22.90;69.20;;;;;;4992003;28;20026;-51
2022/06/01 07:44:32;;;;;;;40.13;32.58;;;;;;;;;;4992183;28;20073;-55
2022/06/01 07:46:58;;;;;;;36.13;31.40;;;;;;;;;;4992003;28;20395;-57
2022/06/01 07:49:25;;;;;;;38.83;30.85;;;;;;;;;;4992376;28;20030;-54
2022/06/01 07:51:53;;;;;;;38.10;32.00;;;;;;;;;;4990596;28;20031;-54
2022/06/01 07:54:20;;;;;;;34.83;30.92;;;;;;;;;;4992012;28;20113;-55
2022/06/01 07:56:46;;;;;;;44.10;31.13;;;;;;;;;;4991759;28;20030;-55
2022/06/01 07:59:13;;;;;;;39.67;33.22;;;;;;;;;;4990508;28;20038;-54
2022/06/01 08:01:39;;;;;;;37.70;32.75;;;;;;;;;;4991998;28;20030;-55
2022/06/01 08:04:06;;;;;;;40.97;32.10;;;;;;;;;;4991846;28;20061;-52
2022/06/01 08:06:32;;;;;;;;;;;;;;;;;;4992168;28;20026;-56
2022/06/01 08:08:58;;;;;;;38.42;30.63;;;;;;;;;;4991734;28;19920;-56
2022/06/01 08:13:06;;;;;;;37.92;31.50;;;;;;;;;;4991976;28;20027;-56
2022/06/01 08:14:12;;;;;;;117.05;45.65;;;;;;;;;;4991656;28;20054;-58
2022/06/01 08:16:38;;;;;;;71.47;39.60;;;;;;;;;;4991610;28;20034;-56
2022/06/01 08:19:08;;;;;;;177.55;51.78;;;;;;;;;;4991909;28;20079;-56
2022/06/01 08:21:34;;;;;;;48.85;38.33;;;;;;;;;;4991620;28;20034;-56
2022/06/01 08:24:01;;;;;;;53.45;37.20;;;;;;;;;;4994806;28;20029;-52
2022/06/01 08:26:27;;;;;;;;;;;;;;;;;;4995629;28;20034;-52
2022/06/01 08:28:53;;;;;;;41.67;33.33;;;;;;;;;;4995190;28;19928;-53
2022/06/01 08:31:19;;;;;;;36.63;31.67;;;;;;;;;;4995156;28;20420;-56
2022/06/01 08:33:45;;;;;;;41.42;32.88;;;;;;;;;;4995169;28;20483;-56
2022/06/01 08:36:11;;;;;;;38.40;29.17;;;22.90;68.90;;;;;;4994871;28;20028;-54
2022/06/01 08:38:36;;;;;;;34.80;29.87;;;23.70;67.50;;;;;;4994950;28;20117;-54
2022/06/01 08:41:09;;;;;;;37.80;28.83;;;23.80;66.90;;;;;;4995010;28;20023;-57
2022/06/01 08:43:47;;;;;;;38.15;29.83;;;24.00;66.40;;;;;;4995321;28;20033;-57
2022/06/01 08:46:14;;;;;;;32.10;28.35;;;24.20;65.70;;;;;;4994975;28;20026;-56
2022/06/01 08:48:47;;;;;;;39.42;29.73;;;24.20;64.90;;;;;;4994712;28;20026;-56
2022/06/01 08:51:13;;;;;;;33.08;27.73;;;24.30;64.50;;;;;;4994755;28;20081;-57
2022/06/01 08:53:40;;;;;;;34.42;27.02;;;24.40;64.00;;;;;;4994854;28;20443;-57
2022/06/01 08:56:09;;;;;;;;;;;;;;;;;;4994947;28;20023;-57
2022/06/01 08:58:43;;;;;;;36.78;25.33;;;;;;;;;;4994499;28;19906;-57
2022/06/01 09:01:30;;;;;;;29.50;26.40;;;;;;;;;;4994614;28;20101;-56
2022/06/01 09:04:05;;;;;;;36.20;26.90;;;;;;;;;;4994606;28;20027;-54
2022/06/01 09:06:35;;;;;;;33.92;26.73;;;;;;;;;;4994381;28;20073;-56
2022/06/01 09:09:06;;;;;;;30.80;25.20;;;;;;;;;;4994409;28;20113;-56
2022/06/01 09:11:37;;;;;;;28.73;25.60;;;;;;;;;;4994580;28;20434;-57
2022/06/01 09:14:03;;;;;;;32.17;22.70;;;;;;;;;;4994366;28;20066;-57
2022/06/01 09:16:29;;;;;;;22.67;18.13;;;;;;;;;;4995010;28;20027;-58
2022/06/01 09:18:56;;;;;;;24.30;21.40;;;;;;;;;;4994710;28;20034;-57
2022/06/01 09:24:07;;;;;;;25.98;19.77;;;;;;;;;;4994080;28;20108;-56
2022/06/01 09:26:33;;;;;;;23.98;20.42;;;;;;;;;;4994064;28;20195;-57
2022/06/01 09:29:00;;;;;;;26.35;21.48;;;;;;;;;;4994135;28;20098;-56
2022/06/01 09:31:31;;;;;;;28.88;23.48;;;;;;;;;;4994049;28;20054;-58
2022/06/01 09:34:14;;;;;;;26.50;22.33;;;;;;;;;;4993725;28;20027;-58
2022/06/01 09:37:10;;;;;;;27.70;22.30;;;;;;;;;;4992388;28;20395;-57
2022/06/01 09:39:38;;;;;;;25.45;22.83;;;;;;;;;;4977718;28;20046;-56
2022/06/01 09:42:30;;;;;;;25.05;22.33;;;;;;;;;;4993874;28;20053;-56
2022/06/01 09:44:57;;;;;;;31.65;22.60;;;;;;;;;;5004402;28;20162;-59
2022/06/01 09:47:30;;;;;;;29.50;22.52;;;;;;;;;;4993684;28;20027;-56
2022/06/01 09:49:57;;;;;;;27.35;23.13;;;;;;;;;;4993770;28;20030;-58
2022/06/01 09:52:42;;;;;;;28.20;22.20;;;;;;;;;;4993655;28;20018;-57
2022/06/01 09:55:15;;;;;;;25.80;22.88;;;;;;;;;;4993561;28;20096;-58
2022/06/01 09:57:41;;;;;;;26.27;22.45;;;24.40;64.40;;;;;;4993533;28;20034;-57
2022/06/01 10:06:07;;;;;;;28.98;22.90;;;;;;;;;;4982115;28;20080;-57
2022/06/01 10:08:35;;;;;;;32.03;24.25;;;;;;;;;;4993353;28;20033;-55
2022/06/01 10:11:05;;;;;;;26.25;21.90;;;;;;;;;;4993285;28;20226;-56
2022/06/01 10:13:33;;;;;;;26.05;22.45;;;;;;;;;;4993301;28;20029;-53
2022/06/01 10:16:17;;;;;;;32.53;23.92;;;;;;;;;;4993198;28;20031;-53
2022/06/01 10:18:44;;;;;;;28.75;24.13;;;;;;;;;;4993029;28;20026;-57
2022/06/01 10:21:14;;;;;;;29.83;22.42;;;;;;;;;;4993134;28;20476;-57
2022/06/01 10:23:49;;;;;;;27.42;22.85;;;;;;;;;;4993022;28;20029;-56
2022/06/01 10:26:20;;;;;;;24.02;21.35;;;;;;;;;;4992830;28;20526;-57
2022/06/01 10:29:06;;;;;;;29.73;20.98;;;;;;;;;;4992953;28;20030;-58
2022/06/01 10:31:37;;;;;;;25.67;22.33;;;;;;;;;;4992427;28;20125;-58
2022/06/01 10:34:03;;;;;;;25.15;20.80;;;;;;;;;;4992532;28;20487;-56
2022/06/01 10:36:41;;;;;;;22.77;20.42;;;;;;;;;;4992762;28;20045;-57
2022/06/01 10:39:08;;;;;;;23.45;18.63;;;;;;;;;;5014862;23;20584;-49
2022/06/01 10:41:57;;;;;;;27.40;21.27;;;;;;;;;;4991696;28;20102;-49
2022/06/01 10:44:30;;;;;;;21.58;16.88;;;;;;;;;;4979755;28;20039;-49
2022/06/01 10:47:11;;;;;;;20.92;15.85;;;26.60;56.40;;;;;;4991733;28;20102;-49
2022/06/01 10:49:46;;;;;;;23.10;16.08;;;27.40;52.90;;;;;;4983599;28;20035;-49
2022/06/01 10:52:29;;;;;;;25.30;19.60;;;27.40;52.10;;;;;;4974390;28;20062;-49
2022/06/01 10:55:25;;;;;;;23.08;19.38;;;27.60;52.20;;;;;;4972991;28;20037;-49
2022/06/01 10:57:51;;;;;;;24.90;19.48;;;27.90;51.20;;;;;;4966593;28;20038;-49
2022/06/01 11:00:21;;;;;;;26.80;20.70;;;28.00;52.00;;;;;;4974053;28;20169;-49
2022/06/01 11:03:12;;;;;;;23.58;19.45;;;28.30;51.80;;;;;;4983287;28;20510;-49
2022/06/01 11:05:57;;;;;;;24.17;19.73;;;;;;;;;;4987977;28;20035;-51
2022/06/01 11:08:32;;;;;;;23.17;18.75;;;28.60;51.60;;;;;;4976307;28;20054;-49
2022/06/01 11:11:18;;;;;;;24.33;20.65;;;29.00;49.90;;;;;;4992323;28;20030;-48
2022/06/01 11:13:47;;;;;;;21.67;19.40;;;29.00;51.20;;;;;;4987120;28;20376;-48
2022/06/01 11:16:25;;;;;;;25.80;18.58;;;29.20;50.50;;;;;;4975568;28;20069;-49
2022/06/01 11:19:19;;;;;;;24.65;19.90;;;29.10;48.60;;;;;;4975606;28;20178;-49
2022/06/01 11:21:56;;;;;;;21.92;17.75;;;28.80;48.20;;;;;;4956542;28;20118;-49
2022/06/01 11:24:35;;;;;;;22.50;16.98;;;28.60;48.90;;;;;;4981373;28;20038;-49
2022/06/01 11:27:22;;;;;;;23.13;18.42;;;28.40;50.20;;;;;;4971514;28;20054;-48
2022/06/01 11:30:08;;;;;;;18.95;16.95;;;28.40;49.50;;;;;;4955328;28;20038;-49
2022/06/01 11:33:10;;;;;;;22.70;17.10;;;28.30;49.60;;;;;;4976514;28;20034;-48
2022/06/01 11:35:39;;;;;;;20.50;18.23;;;28.30;50.40;;;;;;4973084;28;20094;-49
2022/06/01 11:38:30;;;;;;;26.67;18.35;;;28.30;49.80;;;;;;4991307;28;20129;-49
2022/06/01 11:41:05;;;;;;;22.55;16.65;;;28.60;49.80;;;;;;4963905;28;20050;-48
2022/06/01 11:43:48;;;;;;;13.35;11.35;;;29.00;49.50;;;;;;4973836;28;20045;-48
2022/06/01 11:46:23;;;;;;;17.40;12.32;;;29.20;47.40;;;;;;4971462;28;20439;-49
2022/06/01 11:49:00;;;;;;;16.05;13.35;;;29.30;47.20;;;;;;4972537;28;20034;-49
2022/06/01 11:51:38;;;;;;;17.05;13.18;;;29.50;46.70;;;;;;4956257;28;20490;-49
2022/06/01 11:54:30;;;;;;;16.02;13.73;;;29.70;46.20;;;;;;4992032;28;20398;-49
2022/06/01 11:57:18;;;;;;;16.48;13.38;;;29.70;45.20;;;;;;4987231;28;20056;-50
2022/06/01 12:00:03;;;;;;;13.93;12.52;;;29.50;46.20;;;;;;4994971;28;20113;-49
2022/06/01 12:02:41;;;;;;;19.20;16.13;;;29.40;47.60;;;;;;4988258;28;20039;-52
2022/06/01 12:05:19;;;;;;;27.45;15.38;;;29.60;47.00;;;;;;4966865;28;20081;-49
2022/06/01 12:07:53;;;;;;;19.48;15.57;;;29.70;46.90;;;;;;4995619;28;20027;-50
2022/06/01 12:10:25;;;;;;;18.83;15.13;;;29.70;45.80;;;;;;4992218;28;20029;-49
2022/06/01 12:13:01;;;;;;;16.55;14.82;;;;;;;;;;4995626;28;20058;-49
2022/06/01 12:16:02;;;;;;;18.67;15.35;;;29.60;46.40;;;;;;4995334;28;20026;-49
2022/06/01 12:18:29;;;;;;;19.17;14.75;;;29.70;45.10;;;;;;4990855;28;20023;-49
2022/06/01 12:21:26;;;;;;;21.13;15.50;;;29.60;46.20;;;;;;4980855;28;20018;-49
2022/06/01 12:30:18;;;;;;;19.95;14.48;;;29.30;47.50;;;;;;4993465;28;20521;-49
2022/06/01 12:32:59;;;;;;;17.00;14.77;;;29.40;47.30;;;;;;4975774;28;20022;-49
2022/06/01 12:35:30;;;;;;;16.40;13.20;;;29.40;46.80;;;;;;4984110;28;20399;-49
2022/06/01 12:38:03;;;;;;;17.35;13.38;;;29.20;46.50;;;;;;4975615;28;20323;-48
2022/06/01 12:40:29;;;;;;;17.20;12.75;;;29.10;46.90;;;;;;4975579;28;20031;-49
2022/06/01 12:42:58;;;;;;;17.15;12.35;;;29.20;47.20;;;;;;4975581;28;20038;-49
2022/06/01 12:45:36;;;;;;;16.42;13.00;;;29.20;48.00;;;;;;4975271;28;20339;-48
2022/06/01 12:48:06;;;;;;;15.82;11.63;;;29.70;47.60;;;;;;4975521;28;20494;-49
2022/06/01 12:50:44;;;;;;;15.15;12.52;;;30.10;46.40;;;;;;4975403;28;20450;-49
2022/06/01 12:53:12;;;;;;;15.80;11.65;;;30.50;45.90;;;;;;4975497;28;20029;-49
2022/06/01 12:55:38;;;;;;;14.35;12.05;;;30.90;46.20;;;;;;4975243;28;20031;-49
2022/06/01 12:58:14;;;;;;;19.77;13.88;;;31.10;45.00;;;;;;4975206;28;20038;-50
2022/06/01 13:00:45;;;;;;;12.65;11.27;;;31.10;44.30;;;;;;4975458;28;20106;-48
2022/06/01 13:03:12;;;;;;;14.52;9.82;;;31.30;44.40;;;;;;4975373;28;20048;-49
2022/06/01 13:05:46;;;;;;;15.40;11.35;;;31.70;44.20;;;;;;4974931;28;20399;-49
2022/06/01 13:08:25;;;;;;;16.05;13.10;;;32.00;43.10;;;;;;4974532;28;20140;-49
2022/06/01 13:10:51;;;;;;;13.55;11.25;;;32.00;42.40;;;;;;4975165;28;20338;-49
2022/06/01 13:13:34;;;;;;;15.93;9.77;;;32.20;42.30;;;;;;4975049;28;20019;-48
2022/06/01 13:16:07;;;;;;;17.80;11.45;;;32.90;41.90;;;;;;4974819;28;20106;-49
2022/06/01 13:18:39;;;;;;;14.40;11.43;;;34.10;41.10;;;;;;4974908;28;20081;-49
2022/06/01 13:21:28;;;;;;;13.57;11.50;;;35.80;38.80;;;;;;4974869;28;20030;-49
2022/06/01 13:24:00;;;;;;;13.20;10.32;;;37.20;33.20;;;;;;4974971;28;20138;-47
2022/06/01 13:26:38;;;;;;;13.18;9.82;;;38.20;33.80;;;;;;4957299;28;20023;-48
2022/06/01 13:29:29;;;;;;;17.13;9.45;;;39.50;34.10;;;;;;4974596;28;20058;-47
2022/06/01 13:32:01;;;;;;;13.02;10.32;;;40.90;31.40;;;;;;4974653;28;20498;-48
2022/06/01 13:34:45;;;;;;;12.05;9.00;;;40.50;30.00;;;;;;4974648;28;20037;-48
2022/06/01 13:37:14;;;;;;;16.08;10.05;;;39.30;32.20;;;;;;4974647;28;20043;-48
2022/06/01 13:39:48;;;;;;;14.75;9.68;;;39.30;32.40;;;;;;4974376;28;20518;-48